Time;durP1;ratioP1;P1;durP2;ratioP2;P2;SDS_P1;SDS_P2;PMS_P1;PMS_P2;Temp;Humidity;BMP_temperature;BMP_pressure;BME280_temperature;BME280_humidity;BME280_pressure;Samples;Min_cycle;Max_cycle;Signal;HPM_P1;HPM_P2
2022/05/02 00:00:20;;;;;;;;;;;10.90;99.90;;;;;;5028832;28;19932;-70
2022/05/02 00:02:47;;;;;;;;;;;10.80;99.90;;;;;;5028974;28;19935;-70
2022/05/02 00:05:14;;;;;;;;;;;10.80;99.90;;;;;;5029562;28;19979;-69
2022/05/02 00:07:41;;;;;;;;;;;10.70;99.90;;;;;;5022525;28;19929;-69
2022/05/02 00:10:08;;;;;;;;;;;10.70;99.90;;;;;;5027547;28;19929;-70
2022/05/02 00:12:34;;;;;;;;;;;10.60;99.90;;;;;;5021051;28;19929;-70
2022/05/02 00:15:02;;;;;;;;;;;10.60;99.90;;;;;;5028058;28;19933;-68
2022/05/02 00:20:13;;;;;;;;;;;10.50;99.90;;;;;;5028378;28;20010;-69
2022/05/02 00:22:40;;;;;;;;;;;10.40;99.90;;;;;;5022545;28;19953;-69
2022/05/02 00:25:07;;;;;;;;;;;10.40;99.90;;;;;;5024572;28;20437;-70
2022/05/02 00:27:33;;;;;;;;;;;10.30;99.90;;;;;;5030050;28;19933;-69
2022/05/02 00:30:00;;;;;;;;;;;10.30;99.90;;;;;;5029441;28;19940;-69
2022/05/02 00:32:28;;;;;;;;;;;10.30;99.90;;;;;;5025878;28;19929;-69
2022/05/02 00:34:54;;;;;;;;;;;10.30;99.90;;;;;;5027640;28;19933;-69
2022/05/02 00:37:21;;;;;;;;;;;10.20;99.90;;;;;;5030230;28;19929;-69
2022/05/02 00:39:48;;;;;;;;;;;10.20;99.90;;;;;;5022636;28;19955;-68
2022/05/02 00:42:14;;;;;;;;;;;10.20;99.90;;;;;;5018089;28;19928;-68
2022/05/02 00:44:41;;;;;;;;;;;10.20;99.90;;;;;;5019482;28;20354;-68
2022/05/02 00:47:09;;;;;;;;;;;10.20;99.90;;;;;;5028844;28;19929;-70
2022/05/02 00:49:37;;;;;;;;;;;10.20;99.90;;;;;;5027763;28;19925;-68
2022/05/02 00:52:04;;;;;;;;;;;10.20;99.90;;;;;;5028451;28;19929;-68
2022/05/02 00:54:31;;;;;;;;;;;10.30;99.90;;;;;;5019034;28;19979;-69
2022/05/02 00:56:57;;;;;;;;;;;10.30;99.90;;;;;;5024802;28;19979;-68
2022/05/02 00:59:24;;;;;;;;;;;10.40;99.90;;;;;;5029159;28;20003;-69
2022/05/02 01:01:51;;;;;;;;;;;10.50;99.90;;;;;;5025105;28;20311;-69
2022/05/02 01:04:17;;;;;;;;;;;10.50;99.90;;;;;;5027036;28;19929;-69
2022/05/02 01:09:30;;;;;;;;;;;10.60;99.90;;;;;;5018895;28;19936;-71
2022/05/02 01:11:57;;;;;;;;;;;10.60;99.90;;;;;;5027946;28;19995;-70
2022/05/02 01:14:23;;;;;;;;;;;10.70;99.90;;;;;;5028356;28;19933;-70
2022/05/02 01:16:50;;;;;;;;;;;10.70;99.90;;;;;;5026248;28;19929;-69
2022/05/02 01:19:17;;;;;;;;;;;10.70;99.90;;;;;;5028365;28;19932;-71
2022/05/02 01:21:45;;;;;;;;;;;10.80;99.90;;;;;;5027685;28;19979;-70
2022/05/02 01:24:11;;;;;;;;;;;10.80;99.90;;;;;;5028744;28;20445;-70
2022/05/02 01:26:38;;;;;;;;;;;10.80;99.90;;;;;;5026695;28;20020;-70
2022/05/02 01:29:06;;;;;;;;;;;10.80;99.90;;;;;;5022153;28;19933;-70
2022/05/02 01:31:33;;;;;;;;;;;10.80;99.90;;;;;;5022148;28;19929;-70
2022/05/02 01:34:00;;;;;;;;;;;10.80;99.90;;;;;;5027169;28;19925;-70
2022/05/02 01:36:27;;;;;;;;;;;10.90;99.90;;;;;;5021599;28;19963;-70
2022/05/02 01:38:54;;;;;;;;;;;10.90;99.90;;;;;;5028708;28;19925;-69
2022/05/02 01:41:21;;;;;;;;;;;10.90;99.90;;;;;;5021098;28;20355;-69
2022/05/02 01:43:48;;;;;;;;;;;10.90;99.90;;;;;;5023590;28;20276;-69
2022/05/02 01:46:15;;;;;;;;;;;10.90;99.90;;;;;;5027181;28;19929;-70
2022/05/02 01:48:41;;;;;;;;;;;10.90;99.90;;;;;;5026434;28;19925;-71
2022/05/02 01:51:08;;;;;;;;;;;10.90;99.90;;;;;;5028516;28;19933;-70
2022/05/02 01:53:35;;;;;;;;;;;10.90;99.90;;;;;;5030538;28;19929;-70
2022/05/02 01:56:03;;;;;;;;;;;10.90;99.90;;;;;;5026698;28;19932;-70
2022/05/02 01:58:29;;;;;;;;;;;10.90;99.90;;;;;;5028642;28;20298;-69
2022/05/02 02:00:56;;;;;;;;;;;10.90;99.90;;;;;;5019481;28;19991;-70
2022/05/02 02:03:22;;;;;;;;;;;10.80;99.90;;;;;;5022565;28;19933;-70
2022/05/02 02:05:51;;;;;;;;;;;10.80;99.90;;;;;;5025587;28;19925;-70
2022/05/02 02:08:18;;;;;;;;;;;10.80;99.90;;;;;;5022154;28;19965;-69
2022/05/02 02:10:45;;;;;;;;;;;10.70;99.90;;;;;;5025065;28;19932;-70
2022/05/02 02:13:13;;;;;;;;;;;10.70;99.90;;;;;;5018074;28;19987;-70
2022/05/02 02:15:39;;;;;;;;;;;10.60;99.90;;;;;;5047387;22;19936;-69
2022/05/02 02:18:06;;;;;;;;;;;10.60;99.90;;;;;;5041044;28;19990;-66
2022/05/02 02:20:33;;;;;;;;;;;10.60;99.90;;;;;;5043710;28;19933;-67
2022/05/02 02:23:00;;;;;;;;;;;10.60;99.90;;;;;;5043880;28;19990;-67
2022/05/02 02:25:26;;;;;;;;;;;10.50;99.90;;;;;;5040778;28;20014;-67
2022/05/02 02:27:53;;;;;;;;;;;10.60;99.90;;;;;;5025098;28;20011;-67
2022/05/02 02:30:21;;;;;;;;;;;10.60;99.90;;;;;;5018961;28;19932;-67
2022/05/02 02:32:48;;;;;;;;;;;10.60;99.90;;;;;;5019707;28;19983;-67
2022/05/02 02:35:14;;;;;;;;;;;10.60;99.90;;;;;;5022597;28;19929;-67
2022/05/02 02:37:41;;;;;;;;;;;10.60;99.90;;;;;;5025063;28;20012;-67
2022/05/02 02:40:09;;;;;;;;;;;10.70;99.90;;;;;;5026638;28;19925;-67
2022/05/02 02:42:36;;;;;;;;;;;10.60;99.90;;;;;;5019484;28;19935;-69
2022/05/02 02:45:02;;;;;;;;;;;10.60;99.90;;;;;;5022444;28;20008;-68
2022/05/02 02:47:30;;;;;;;;;;;10.60;99.90;;;;;;5036222;28;19945;-68
2022/05/02 02:49:56;;;;;;;;;;;10.60;99.90;;;;;;5030174;28;19956;-68
2022/05/02 02:52:23;;;;;;;;;;;10.60;99.90;;;;;;5027715;28;19934;-67
2022/05/02 02:54:49;;;;;;;;;;;10.50;99.90;;;;;;5023148;28;19929;-67
2022/05/02 02:57:16;;;;;;;;;;;10.50;99.90;;;;;;5024786;28;20007;-68
2022/05/02 02:59:42;;;;;;;;;;;10.50;99.90;;;;;;5024309;28;20011;-67
2022/05/02 03:02:09;;;;;;;;;;;10.50;99.90;;;;;;5024236;28;19936;-67
2022/05/02 03:07:22;;;;;;;;;;;10.40;99.90;;;;;;5022818;28;19959;-66
2022/05/02 03:09:48;;;;;;;;;;;10.40;99.90;;;;;;5031956;28;19929;-67
2022/05/02 03:12:15;;;;;;;;;;;10.40;99.90;;;;;;5025019;28;19995;-67
2022/05/02 03:14:42;;;;;;;;;;;10.40;99.90;;;;;;5028745;28;20036;-66
2022/05/02 03:17:08;;;;;;;;;;;10.40;99.90;;;;;;5025473;28;19990;-66
2022/05/02 03:19:35;;;;;;;;;;;10.40;99.90;;;;;;5030530;28;19999;-66
2022/05/02 03:22:03;;;;;;;;;;;10.40;99.90;;;;;;5032908;28;19933;-67
2022/05/02 03:24:29;;;;;;;;;;;10.40;99.90;;;;;;5028329;28;19933;-68
2022/05/02 03:26:56;;;;;;;;;;;10.40;99.90;;;;;;5034384;28;20402;-67
2022/05/02 03:29:22;;;;;;;;;;;10.40;99.90;;;;;;5021472;28;20000;-67
2022/05/02 03:31:49;;;;;;;;;;;10.40;99.90;;;;;;5033775;28;19945;-69
2022/05/02 03:34:15;;;;;;;;;;;10.40;99.90;;;;;;5022741;28;19925;-67
2022/05/02 03:36:42;;;;;;;;;;;10.40;99.90;;;;;;5026060;28;19932;-67
2022/05/02 03:39:10;;;;;;;;;;;10.50;99.90;;;;;;5024943;28;19929;-67
2022/05/02 03:41:36;;;;;;;;;;;10.40;99.90;;;;;;5028885;28;19926;-66
2022/05/02 03:44:03;;;;;;;;;;;10.50;99.90;;;;;;5029650;28;19929;-66
2022/05/02 03:46:29;;;;;;;;;;;10.50;99.90;;;;;;5020105;28;19929;-66
2022/05/02 03:48:57;;;;;;;;;;;10.50;99.90;;;;;;5027340;28;20355;-67
2022/05/02 03:51:24;;;;;;;;;;;10.50;99.90;;;;;;5026751;28;19925;-68
2022/05/02 03:53:50;;;;;;;;;;;10.50;99.90;;;;;;5028773;28;19964;-68
2022/05/02 03:56:18;;;;;;;;;;;10.50;99.90;;;;;;5023170;28;19944;-65
2022/05/02 03:58:45;;;;;;;;;;;10.50;99.90;;;;;;5026925;28;20016;-66
2022/05/02 04:01:11;;;;;;;;;;;10.50;99.90;;;;;;5026249;28;20337;-67
2022/05/02 04:03:38;;;;;;;;;;;10.50;99.90;;;;;;5021990;28;19941;-67
2022/05/02 04:06:04;;;;;;;;;;;10.50;99.90;;;;;;5026655;28;20381;-68
2022/05/02 04:08:31;;;;;;;;;;;10.50;99.90;;;;;;5023577;28;19998;-66
2022/05/02 04:10:57;;;;;;;;;;;10.50;99.90;;;;;;5021578;28;20421;-66
2022/05/02 04:13:25;;;;;;;;;;;10.50;99.90;;;;;;5019318;28;19944;-68
2022/05/02 04:15:52;;;;;;;;;;;10.50;99.90;;;;;;5017656;28;19933;-67
2022/05/02 04:18:18;;;;;;;;;;;10.50;99.90;;;;;;5023643;28;20048;-70
2022/05/02 04:20:45;;;;;;;;;;;10.50;99.90;;;;;;5022476;28;19985;-71
2022/05/02 04:23:12;;;;;;;;;;;10.60;99.90;;;;;;5031637;28;20363;-69
2022/05/02 04:25:38;;;;;;;;;;;10.60;99.90;;;;;;5030001;28;19929;-71
2022/05/02 04:28:07;;;;;;;;;;;10.60;99.90;;;;;;5022706;28;19986;-71
2022/05/02 04:30:35;;;;;;;;;;;10.60;99.90;;;;;;5028818;28;20028;-70
2022/05/02 04:33:02;;;;;;;;;;;10.60;99.90;;;;;;5033072;28;19937;-67
2022/05/02 04:35:28;;;;;;;;;;;10.70;99.90;;;;;;5034597;28;20011;-65
2022/05/02 04:37:56;;;;;;;;;;;10.70;99.90;;;;;;5028220;28;19925;-67
2022/05/02 04:40:22;;;;;;;;;;;10.70;99.90;;;;;;5024604;28;20348;-67
2022/05/02 04:42:49;;;;;;;;;;;10.80;99.90;;;;;;5025808;28;19994;-66
2022/05/02 04:45:15;;;;;;;;;;;10.80;99.90;;;;;;5026237;28;20028;-74
2022/05/02 04:47:43;;;;;;;;;;;10.80;99.90;;;;;;5027605;28;20025;-69
2022/05/02 04:50:10;;;;;;;;;;;10.80;99.90;;;;;;5024162;28;19929;-67
2022/05/02 04:52:36;;;;;;;;;;;10.80;99.90;;;;;;5030785;28;19933;-67
2022/05/02 04:55:03;;;;;;;;;;;10.80;99.90;;;;;;5024897;28;19933;-68
2022/05/02 04:57:30;;;;;;;;;;;10.80;99.90;;;;;;5027487;28;19925;-68
2022/05/02 04:59:56;;;;;;;;;;;10.90;99.90;;;;;;5027923;28;19925;-67
2022/05/02 05:02:23;;;;;;;;;;;10.80;99.90;;;;;;5025115;28;19977;-67
2022/05/02 05:04:51;;;;;;;;;;;10.90;99.90;;;;;;5022629;28;19970;-70
2022/05/02 05:07:17;;;;;;;;;;;10.90;99.90;;;;;;5027261;28;19929;-70
2022/05/02 05:09:44;;;;;;;;;;;10.90;99.90;;;;;;5029106;28;19929;-68
2022/05/02 05:12:17;;;;;;;;;;;10.80;99.90;;;;;;5031549;28;19955;-67
2022/05/02 05:17:38;;;;;;;;;;;10.90;99.90;;;;;;5036085;28;20070;-68
2022/05/02 05:20:10;;;;;;;;;;;10.90;99.90;;;;;;5033698;28;19941;-73
2022/05/02 05:22:55;;;;;;;;;;;10.90;99.90;;;;;;5027174;28;20013;-70
2022/05/02 05:25:29;;;;;;;;;;;10.90;99.90;;;;;;5028192;28;20384;-72
2022/05/02 05:28:04;;;;;;;;;;;11.00;99.90;;;;;;5026835;28;20390;-68
2022/05/02 05:30:34;;;;;;;;;;;11.00;99.90;;;;;;5028420;28;19929;-68
2022/05/02 05:33:04;;;;;;;;;;;11.20;99.90;;;;;;5031330;28;19925;-69
2022/05/02 05:35:38;;;;;;;;;;;11.20;99.90;;;;;;5026764;28;20008;-69
2022/05/02 05:38:07;;;;;;;;;;;11.30;99.90;;;;;;5032130;28;20449;-68
2022/05/02 05:40:38;;;;;;;;;;;11.40;99.90;;;;;;5024887;28;19937;-69
2022/05/02 05:43:18;;;;;;;;;;;11.40;99.90;;;;;;5020609;28;19930;-68
2022/05/02 05:45:58;;;;;;;;;;;11.50;99.90;;;;;;5034585;28;19980;-68
2022/05/02 05:48:32;;;;;;;;;;;11.60;99.90;;;;;;5031294;28;19933;-68
2022/05/02 05:51:04;;;;;;;;;;;11.60;99.90;;;;;;5035665;28;19996;-70
2022/05/02 05:53:35;;;;;;;;;;;11.60;99.90;;;;;;5028426;28;20012;-69
2022/05/02 05:56:07;;;;;;;;;;;11.70;99.90;;;;;;5022232;28;20039;-70
2022/05/02 05:58:46;;;;;;;;;;;11.80;99.90;;;;;;5025460;28;20028;-69
2022/05/02 06:01:15;;;;;;;;;;;11.80;99.90;;;;;;5016970;28;20371;-70
2022/05/02 06:03:48;;;;;;;;;;;11.80;99.90;;;;;;5018401;28;19952;-70
2022/05/02 06:06:17;;;;;;;;;;;11.90;99.90;;;;;;5024849;28;19941;-69
2022/05/02 06:08:45;;;;;;;;;;;11.90;99.90;;;;;;5023579;28;20360;-70
2022/05/02 06:11:12;;;;;;;;;;;12.00;99.90;;;;;;5023995;28;21307;-75
2022/05/02 06:13:39;;;;;;;;;;;12.10;99.90;;;;;;5025774;28;20004;-67
2022/05/02 06:18:52;;;;;;;;;;;12.30;99.90;;;;;;5024821;28;19928;-70
2022/05/02 06:21:21;;;;;;;;;;;12.30;99.90;;;;;;5020793;28;19933;-70
2022/05/02 06:23:50;;;;;;;;;;;12.30;99.90;;;;;;5023016;28;19929;-70
2022/05/02 06:26:18;;;;;;;;;;;12.40;99.90;;;;;;5021214;28;19929;-70
2022/05/02 06:28:45;;;;;;;;;;;12.40;99.90;;;;;;5025222;28;19933;-70
2022/05/02 06:31:14;;;;;;;;;;;12.50;99.90;;;;;;5021949;28;19932;-70
2022/05/02 06:33:40;;;;;;;;;;;12.60;99.90;;;;;;5022106;28;20005;-70
2022/05/02 06:36:21;;;;;;;;;;;12.70;99.90;;;;;;5021404;28;19932;-70
2022/05/02 06:38:58;;;;;;;;;;;12.80;99.90;;;;;;5025334;28;20071;-71
2022/05/02 06:41:31;;;;;;;;;;;12.90;99.90;;;;;;5027246;28;20951;-70
2022/05/02 06:44:01;;;;;;;;;;;13.00;99.90;;;;;;5027239;28;19925;-73
2022/05/02 06:46:29;;;;;;;;;;;13.10;99.90;;;;;;5021622;28;19932;-72
2022/05/02 06:48:57;;;;;;;;;;;13.30;99.90;;;;;;5024358;28;19933;-70
2022/05/02 06:51:28;;;;;;;;;;;13.30;99.90;;;;;;5023368;28;20302;-70
2022/05/02 06:54:18;;;;;;;;;;;13.40;99.90;;;;;;5009583;28;19933;-68
2022/05/02 06:56:48;;;;;;;;;;;13.50;99.90;;;;;;5024817;28;20489;-67
2022/05/02 06:59:23;;;;;;;;;;;13.60;99.90;;;;;;5026923;28;19932;-67
2022/05/02 07:01:51;;;;;;;;;;;13.60;99.90;;;;;;5021507;28;19929;-69
2022/05/02 07:04:41;;;;;;;;;;;13.70;99.90;;;;;;5024924;28;20044;-68
2022/05/02 07:07:11;;;;;;;;;;;13.60;99.90;;;;;;5022187;28;20051;-68
2022/05/02 07:09:41;;;;;;;;;;;13.60;99.90;;;;;;5026602;28;19944;-68
2022/05/02 07:12:12;;;;;;;;;;;13.60;99.90;;;;;;5022271;28;19936;-68
2022/05/02 07:14:45;;;;;;;;;;;13.70;99.90;;;;;;5026826;28;19929;-67
2022/05/02 07:17:20;;;;;;;;;;;13.80;99.90;;;;;;5023443;28;20371;-67
2022/05/02 07:19:53;;;;;;;;;;;13.80;99.90;;;;;;5020214;28;19974;-68
2022/05/02 07:22:24;;;;;;;;;;;13.90;99.90;;;;;;5025595;28;20021;-68
2022/05/02 07:24:56;;;;;;;;;;;13.90;99.90;;;;;;5025015;28;20353;-67
2022/05/02 07:27:28;;;;;;;;;;;13.90;99.90;;;;;;5017001;28;19933;-67
2022/05/02 07:29:57;;;;;;;;;;;14.00;99.90;;;;;;5014191;28;19933;-66
2022/05/02 07:32:24;;;;;;;;;;;14.10;99.90;;;;;;5019339;28;20337;-65
2022/05/02 07:34:52;;;;;;;;;;;14.30;99.90;;;;;;5025079;28;19988;-68
2022/05/02 07:37:20;;;;;;;;;;;14.50;99.90;;;;;;5026045;28;19944;-69
2022/05/02 07:39:48;;;;;;;;;;;14.70;99.90;;;;;;5017601;28;19959;-67
2022/05/02 07:42:15;;;;;;;;;;;14.80;99.90;;;;;;5020095;28;19925;-68
2022/05/02 07:44:44;;;;;;;;;;;15.00;99.90;;;;;;5018843;28;19937;-67
2022/05/02 07:47:11;;;;;;;;;;;15.20;99.90;;;;;;5023044;28;19932;-68
2022/05/02 07:49:39;;;;;;;;;;;15.40;99.90;;;;;;5022843;28;19932;-68
2022/05/02 07:52:06;;;;;;;;;;;15.50;99.90;;;;;;5030655;28;20325;-67
2022/05/02 07:54:37;;;;;;;;;;;15.60;99.90;;;;;;5026746;28;20299;-68
2022/05/02 07:57:04;;;;;;;;;;;15.70;99.90;;;;;;5034160;28;20426;-68
2022/05/02 07:59:31;;;;;;;;;;;15.80;99.90;;;;;;5023469;28;19988;-68
2022/05/02 08:02:00;;;;;;;;;;;16.00;99.90;;;;;;5024896;28;20416;-69
2022/05/02 08:04:26;;;;;;;;;;;16.20;99.90;;;;;;5025527;28;19955;-67
2022/05/02 08:07:00;;;;;;;;;;;16.40;99.90;;;;;;5026608;28;20363;-68
2022/05/02 08:09:45;;;;;;;;;;;16.70;99.90;;;;;;5027093;28;19987;-68
2022/05/02 08:12:17;;;;;;;;;;;16.90;99.90;;;;;;5022627;28;19988;-68
2022/05/02 08:14:47;;;;;;;;;;;17.20;99.90;;;;;;5030296;28;19982;-70
2022/05/02 08:17:20;;;;;;;;;;;17.40;99.90;;;;;;5016857;28;19964;-68
2022/05/02 08:19:55;;;;;;;;;;;17.70;99.90;;;;;;5031929;28;19990;-67
2022/05/02 08:28:02;;;;;;;;;;;18.00;99.90;;;;;;5006475;28;19932;-72
2022/05/02 08:30:32;;;;;;;;;;;18.00;99.90;;;;;;5011982;28;19983;-72
2022/05/02 08:33:03;;;;;;;;;;;18.10;99.90;;;;;;5015669;28;19933;-72
2022/05/02 08:35:37;;;;;;;;;;;18.20;99.90;;;;;;5014390;28;19925;-71
2022/05/02 08:38:14;;;;;;;;;;;18.30;99.90;;;;;;5025045;28;20280;-73
2022/05/02 08:40:56;;;;;;;;;;;18.50;99.90;;;;;;5024304;28;19930;-70
2022/05/02 08:43:41;;;;;;;;;;;18.70;99.90;;;;;;5030146;28;19929;-69
2022/05/02 08:46:38;;;;;;;;;;;18.90;99.90;;;;;;5016581;28;19932;-70
2022/05/02 08:49:37;;;;;;;;;;;19.00;99.90;;;;;;5006776;28;19937;-72
2022/05/02 08:52:16;;;;;;;;;;;19.30;99.90;;;;;;5010422;28;20020;-73
2022/05/02 08:54:57;;;;;;;;;;;19.60;99.90;;;;;;5008873;28;19925;-74
2022/05/02 08:57:47;;;;;;;;;;;19.70;99.90;;;;;;5016632;28;20442;-74
2022/05/02 09:00:17;;;;;;;;;;;19.90;99.90;;;;;;4989681;28;19926;-72
2022/05/02 09:03:12;;;;;;;;;;;20.10;99.90;;;;;;5012042;28;20393;-72
2022/05/02 09:06:00;;;;;;;;;;;20.20;99.90;;;;;;5008196;28;20049;-75
2022/05/02 09:08:48;;;;;;;;;;;20.30;99.90;;;;;;5009740;28;20387;-74
2022/05/02 09:11:32;;;;;;;;;;;20.30;99.90;;;;;;5018979;28;19930;-74
2022/05/02 09:14:16;;;;;;;;;;;20.60;99.90;;;;;;5006356;28;20005;-74
2022/05/02 09:16:59;;;;;;;;;;;20.60;99.90;;;;;;5012186;28;19929;-75
2022/05/02 09:19:42;;;;;;;;;;;20.60;99.90;;;;;;5010471;28;20399;-73
2022/05/02 09:22:36;;;;;;;;;;;20.80;99.90;;;;;;5008667;28;19929;-74
2022/05/02 09:25:06;;;;;;;;;;;20.60;99.90;;;;;;5015455;28;19924;-70
2022/05/02 09:27:52;;;;;;;;;;;20.40;99.90;;;;;;5013745;28;19944;-72
2022/05/02 09:30:43;;;;;;;;;;;20.50;99.90;;;;;;5003776;28;20404;-69
2022/05/02 09:33:17;;;;;;;;;;;20.60;99.90;;;;;;5012807;28;19929;-71
2022/05/02 09:35:48;;;;;;;;;;;20.70;99.90;;;;;;5006678;28;20027;-71
2022/05/02 09:38:23;;;;;;;;;;;20.80;99.90;;;;;;5005650;28;19929;-71
2022/05/02 09:40:54;;;;;;;;;;;21.00;99.90;;;;;;5007231;28;20253;-72
2022/05/02 09:49:36;;;;;;;;;;;21.50;99.90;;;;;;5014694;28;20000;-71
2022/05/02 09:52:04;;;;;;;;;;;21.60;99.90;;;;;;5019908;28;19929;-72
2022/05/02 09:57:30;;;;;;;;;;;22.00;99.90;;;;;;5015505;28;20386;-72
2022/05/02 10:02:49;;;;;;;;;;;22.50;99.90;;;;;;5020927;28;19928;-73
2022/05/02 10:05:21;;;;;;;;;;;22.70;99.90;;;;;;5024947;28;19929;-72
2022/05/02 10:07:52;;;;;;;;;;;22.80;99.90;;;;;;5016691;28;19933;-72
2022/05/02 10:10:24;;;;;;;;;;;22.80;99.90;;;;;;5016122;28;19929;-72
2022/05/02 10:12:54;;;;;;;;;;;22.90;99.90;;;;;;5012078;28;20431;-72
2022/05/02 10:15:41;;;;;;;;;;;23.10;99.90;;;;;;5010150;28;20063;-71
2022/05/02 10:18:33;;;;;;;;;;;23.10;99.90;;;;;;5003098;28;19929;-71
2022/05/02 10:21:06;;;;;;;;;;;23.20;99.90;;;;;;5012554;28;19955;-73
2022/05/02 10:23:45;;;;;;;;;;;23.40;99.90;;;;;;5011964;28;19926;-73
2022/05/02 10:26:19;;;;;;;;;;;23.60;99.90;;;;;;5010669;28;19926;-71
2022/05/02 10:28:57;;;;;;;;;;;23.80;99.90;;;;;;5008151;28;19933;-72
2022/05/02 10:31:25;;;;;;;;;;;23.90;99.90;;;;;;5009423;28;20365;-73
2022/05/02 10:33:53;;;;;;;;;;;23.90;99.90;;;;;;5010093;28;19949;-72
2022/05/02 10:36:20;;;;;;;;;;;23.90;99.90;;;;;;5015879;28;20060;-67
2022/05/02 10:38:51;;;;;;;;;;;24.00;99.90;;;;;;5021191;28;19925;-67
2022/05/02 10:41:20;;;;;;;;;;;24.10;99.90;;;;;;5011355;28;20015;-68
2022/05/02 10:43:50;;;;;;;;;;;24.10;99.90;;;;;;5010444;28;19925;-62
2022/05/02 10:46:18;;;;;;;;;;;24.20;99.90;;;;;;5008625;28;20111;-63
2022/05/02 10:48:46;;;;;;;;;;;24.30;99.90;;;;;;5010126;28;19964;-62
2022/05/02 10:51:19;;;;;;;;;;;24.30;99.90;;;;;;5009105;28;19937;-65
2022/05/02 10:53:57;;;;;;;;;;;24.50;99.90;;;;;;5004414;28;19926;-63
2022/05/02 10:56:31;;;;;;;;;;;24.50;99.90;;;;;;5010408;28;19929;-64
2022/05/02 10:59:00;;;;;;;;;;;24.60;99.90;;;;;;5009455;28;20621;-64
2022/05/02 11:01:36;;;;;;;;;;;24.60;99.80;;;;;;5009411;28;19925;-62
2022/05/02 11:04:12;;;;;;;;;;;24.70;99.80;;;;;;5010886;28;19929;-64
2022/05/02 11:06:44;;;;;;;;;;;24.90;99.30;;;;;;5008020;28;20425;-64
2022/05/02 11:09:13;;;;;;;;;;;24.90;99.10;;;;;;5006092;28;19929;-61
2022/05/02 11:11:46;;;;;;;;;;;25.00;99.30;;;;;;5017508;28;19929;-64
2022/05/02 11:14:25;;;;;;;;;;;25.10;99.10;;;;;;5021345;28;19980;-63
2022/05/02 11:16:56;;;;;;;;;;;25.20;99.10;;;;;;5034856;28;19973;-61
2022/05/02 11:22:22;;;;;;;;;;;25.50;98.30;;;;;;5003884;28;19944;-63
2022/05/02 11:24:53;;;;;;;;;;;25.60;98.50;;;;;;5008281;28;19956;-63
2022/05/02 11:27:37;;;;;;;;;;;25.80;97.70;;;;;;5011822;28;20051;-62
2022/05/02 11:30:06;;;;;;;;;;;26.10;97.10;;;;;;5006078;28;19936;-64
2022/05/02 11:32:37;;;;;;;;;;;26.20;97.20;;;;;;5010670;28;19987;-64
2022/05/02 11:35:11;;;;;;;;;;;26.40;96.80;;;;;;5004680;28;20013;-64
2022/05/02 11:37:42;;;;;;;;;;;26.50;96.90;;;;;;5014748;28;19925;-65
2022/05/02 11:40:10;;;;;;;;;;;26.70;96.20;;;;;;5013405;28;19930;-62
2022/05/02 11:42:42;;;;;;;;;;;26.90;95.70;;;;;;5011637;28;19925;-62
2022/05/02 11:45:10;;;;;;;;;;;26.90;94.50;;;;;;5009044;28;19925;-64
2022/05/02 11:47:46;;;;;;;;;;;26.60;95.50;;;;;;5009213;28;20013;-62
2022/05/02 11:50:13;;;;;;;;;;;26.00;93.90;;;;;;5014784;28;19983;-62
2022/05/02 11:52:39;;;;;;;;;;;25.50;95.30;;;;;;5006460;28;19930;-64
2022/05/02 11:55:07;;;;;;;;;;;25.10;96.50;;;;;;5009571;28;19936;-62
2022/05/02 11:57:36;;;;;;;;;;;25.00;96.50;;;;;;5009408;28;19929;-64
2022/05/02 12:00:06;;;;;;;;;;;24.80;96.00;;;;;;5004390;28;19965;-64
2022/05/02 12:02:41;;;;;;;;;;;24.70;95.80;;;;;;5006588;28;19929;-63
2022/05/02 12:05:16;;;;;;;;;;;24.60;95.50;;;;;;5011608;28;20396;-63
2022/05/02 12:07:44;;;;;;;;;;;24.50;95.40;;;;;;5005500;28;19999;-64
2022/05/02 12:10:13;;;;;;;;;;;24.40;95.50;;;;;;5009067;28;19933;-64
2022/05/02 12:12:48;;;;;;;;;;;24.70;95.30;;;;;;5011063;28;20418;-64
2022/05/02 12:15:16;;;;;;;;;;;25.10;95.70;;;;;;5010834;28;19926;-63
2022/05/02 12:17:51;;;;;;;;;;;25.50;96.00;;;;;;5014391;28;19984;-63
2022/05/02 12:20:22;;;;;;;;;;;25.80;94.90;;;;;;5009862;28;19933;-64
2022/05/02 12:22:53;;;;;;;;;;;26.20;95.60;;;;;;4998232;28;19930;-64
2022/05/02 12:25:23;;;;;;;;;;;26.50;92.80;;;;;;5009455;28;20530;-63
2022/05/02 12:27:50;;;;;;;;;;;26.60;94.10;;;;;;5010535;28;19979;-65
2022/05/02 12:30:18;;;;;;;;;;;26.60;92.50;;;;;;5008640;28;20406;-63
2022/05/02 12:32:45;;;;;;;;;;;26.60;93.30;;;;;;5006790;28;19930;-67
2022/05/02 12:35:20;;;;;;;;;;;26.70;94.00;;;;;;5015439;28;19914;-63
2022/05/02 12:37:47;;;;;;;;;;;26.50;90.20;;;;;;5035089;28;20350;-64
2022/05/02 12:40:15;;;;;;;;;;;26.40;92.80;;;;;;5007830;28;19926;-64
2022/05/02 12:42:44;;;;;;;;;;;26.70;92.40;;;;;;5003742;28;20386;-64
2022/05/02 12:45:13;;;;;;;;;;;27.00;93.00;;;;;;5009935;28;19941;-65
2022/05/02 12:47:46;;;;;;;;;;;27.50;92.90;;;;;;5010723;28;19933;-67
2022/05/02 12:50:16;;;;;;;;;;;27.70;92.00;;;;;;5008683;28;19952;-64
2022/05/02 12:52:44;;;;;;;;;;;27.70;91.80;;;;;;5010723;28;20020;-64
2022/05/02 12:55:11;;;;;;;;;;;27.50;92.20;;;;;;5012037;28;19979;-65
2022/05/02 13:00:35;;;;;;;;;;;27.20;91.00;;;;;;5008927;28;19932;-65
2022/05/02 13:03:05;;;;;;;;;;;26.70;91.00;;;;;;5016710;28;20028;-65
2022/05/02 13:05:33;;;;;;;;;;;26.40;91.00;;;;;;5012995;28;19979;-66
2022/05/02 13:08:08;;;;;;;;;;;26.10;91.10;;;;;;5008967;28;19929;-66
2022/05/02 13:10:35;;;;;;;;;;;25.90;91.20;;;;;;5012245;28;19932;-65
2022/05/02 13:13:03;;;;;;;;;;;25.50;91.00;;;;;;5013064;28;19930;-64
2022/05/02 13:15:31;;;;;;;;;;;25.30;90.70;;;;;;5008365;28;19957;-66
2022/05/02 13:17:58;;;;;;;;;;;24.90;91.10;;;;;;5008962;28;19925;-64
2022/05/02 13:20:28;;;;;;;;;;;24.70;91.20;;;;;;5000898;28;19943;-66
2022/05/02 13:22:58;;;;;;;;;;;24.50;91.50;;;;;;5006044;28;20024;-66
2022/05/02 13:25:44;;;;;;;;;;;24.50;91.60;;;;;;5004730;28;19934;-65
2022/05/02 13:28:15;;;;;;;;;;;24.20;91.30;;;;;;5007602;28;19925;-65
2022/05/02 13:30:43;;;;;;;;;;;23.90;91.30;;;;;;5008629;28;19971;-64
2022/05/02 13:33:10;;;;;;;;;;;23.90;92.60;;;;;;5014096;28;19983;-65
2022/05/02 13:35:39;;;;;;;;;;;24.20;91.40;;;;;;5011222;28;19972;-65
2022/05/02 13:38:09;;;;;;;;;;;24.50;90.80;;;;;;5010584;28;19961;-64
2022/05/02 13:40:45;;;;;;;;;;;24.90;91.80;;;;;;5006227;28;19930;-65
2022/05/02 13:43:14;;;;;;;;;;;25.50;90.40;;;;;;5015909;28;19948;-64
2022/05/02 13:45:46;;;;;;;;;;;26.20;90.40;;;;;;5009005;28;20462;-65
2022/05/02 13:48:14;;;;;;;;;;;26.80;91.50;;;;;;5008596;28;19933;-67
2022/05/02 13:50:45;;;;;;;;;;;27.40;88.50;;;;;;5015762;28;20454;-65
2022/05/02 13:53:22;;;;;;;;;;;27.70;88.90;;;;;;5009623;28;19926;-66
2022/05/02 13:55:54;;;;;;;;;;;28.20;90.10;;;;;;5009388;28;19952;-67
2022/05/02 13:58:31;;;;;;;;;;;28.90;88.70;;;;;;5007917;28;19949;-67
2022/05/02 14:01:26;;;;;;;;;;;29.40;83.80;;;;;;5010142;28;19956;-67
2022/05/02 14:03:56;;;;;;;;;;;29.40;80.90;;;;;;5008486;28;19934;-66
2022/05/02 14:06:28;;;;;;;;;;;29.20;84.60;;;;;;5011847;28;19929;-65
2022/05/02 14:08:55;;;;;;;;;;;29.40;84.20;;;;;;5006201;28;19973;-64
2022/05/02 14:11:22;;;;;;;;;;;30.00;84.80;;;;;;5007283;28;19925;-67
2022/05/02 14:14:03;;;;;;;;;;;30.30;82.20;;;;;;5010977;28;20033;-66
2022/05/02 14:16:34;;;;;;;;;;;30.90;82.10;;;;;;5007569;28;20307;-66
2022/05/02 14:19:02;;;;;;;;;;;31.40;82.10;;;;;;5008847;28;19984;-67
2022/05/02 14:21:35;;;;;;;;;;;31.90;79.80;;;;;;5008517;28;19926;-67
2022/05/02 14:24:03;;;;;;;;;;;32.30;76.50;;;;;;5012282;28;19929;-68
2022/05/02 14:26:30;;;;;;;;;;;32.70;76.70;;;;;;5008974;28;19940;-65
2022/05/02 14:28:58;;;;;;;;;;;33.30;74.90;;;;;;5006073;28;19929;-66
2022/05/02 14:31:33;;;;;;;;;;;33.60;70.10;;;;;;5015007;28;20028;-68
2022/05/02 14:34:04;;;;;;;;;;;32.90;68.90;;;;;;5012373;28;20338;-65
2022/05/02 14:36:32;;;;;;;;;;;31.40;68.50;;;;;;5032518;22;20001;-70
2022/05/02 14:39:00;;;;;;;;;;;30.10;69.80;;;;;;5021428;28;19925;-70
2022/05/02 14:41:26;;;;;;;;;;;29.30;70.80;;;;;;5020951;28;19940;-71
2022/05/02 14:43:53;;;;;;;;;;;29.70;72.50;;;;;;5018039;28;19986;-69
2022/05/02 14:46:21;;;;;;;;;;;30.80;71.80;;;;;;5018484;28;19992;-71
2022/05/02 14:48:47;;;;;;;;;;;31.50;71.40;;;;;;5020997;28;19929;-70
2022/05/02 14:51:15;;;;;;;;;;;32.30;69.40;;;;;;5016036;28;20435;-70
2022/05/02 14:53:44;;;;;;;;;;;33.50;68.20;;;;;;5020099;28;19947;-70
2022/05/02 14:56:12;;;;;;;;;;;34.20;67.80;;;;;;5020065;28;19925;-70
2022/05/02 14:58:40;;;;;;;;;;;34.80;65.60;;;;;;5021069;28;19996;-69
2022/05/02 15:01:09;;;;;;;;;;;35.50;61.90;;;;;;5023855;28;19937;-70
2022/05/02 15:03:40;;;;;;;;;;;35.60;60.90;;;;;;5019944;28;20007;-68
2022/05/02 15:06:07;;;;;;;;;;;35.50;61.60;;;;;;5023190;28;19945;-71
2022/05/02 15:08:41;;;;;;;;;;;36.30;59.00;;;;;;5023728;28;19956;-68
2022/05/02 15:11:24;;;;;;;;;;;36.90;57.80;;;;;;5024429;28;19932;-69